Time;durP1;ratioP1;P1;durP2;ratioP2;P2;SDS_P1;SDS_P2;PMS_P1;PMS_P2;Temp;Humidity;BMP_temperature;BMP_pressure;BME280_temperature;BME280_humidity;BME280_pressure;Samples;Min_cycle;Max_cycle;Signal;HPM_P1;HPM_P2
2023/01/06 00:00:31;;;;;;;4.05;3.85;;;;;;;8.34;100.00;101271.50;6062503;23;20017;-78
2023/01/06 00:02:58;;;;;;;4.40;4.20;;;;;;;9.32;100.00;101439.16;6111270;23;20275;-78
2023/01/06 00:05:25;;;;;;;3.70;3.60;;;;;;;9.73;100.00;101500.59;6103006;23;20804;-77
2023/01/06 00:07:52;;;;;;;3.83;3.65;;;;;;;9.71;100.00;101498.94;6121199;23;20109;-79
2023/01/06 00:10:18;;;;;;;6.38;3.90;;;;;;;9.69;100.00;101499.00;6095963;23;20021;-77
2023/01/06 00:12:48;;;;;;;3.63;3.53;;;;;;;9.75;100.00;101500.53;6093737;23;20025;-75
2023/01/06 00:15:16;;;;;;;4.43;4.22;;;;;;;9.70;100.00;101499.84;6121397;23;20028;-76
2023/01/06 00:17:43;;;;;;;4.20;4.00;;;;;;;9.70;100.00;101494.59;6094923;23;20097;-77
2023/01/06 00:20:11;;;;;;;3.92;3.72;;;;;;;9.53;100.00;101482.09;6068544;23;20093;-76
2023/01/06 00:22:39;;;;;;;8.52;4.10;;;;;;;9.52;100.00;101470.78;6111932;23;20014;-77
2023/01/06 00:25:05;;;;;;;4.85;4.50;;;;;;;9.68;100.00;101497.31;6112535;23;20083;-78
2023/01/06 00:27:32;;;;;;;4.63;4.32;;;;;;;9.63;100.00;101487.88;6114933;23;20014;-76
2023/01/06 00:29:58;;;;;;;4.35;4.15;;;;;;;9.50;100.00;101459.50;6117314;23;20020;-77
2023/01/06 00:32:25;;;;;;;4.50;4.25;;;;;;;9.29;100.00;101434.03;6092666;23;20080;-77
2023/01/06 00:34:51;;;;;;;4.05;3.85;;;;;;;9.28;100.00;101425.34;6099139;23;20157;-78
2023/01/06 00:37:17;;;;;;;4.30;4.10;;;;;;;9.68;100.00;101494.69;6113532;23;20290;-79
2023/01/06 00:39:44;;;;;;;4.47;4.28;;;;;;;9.10;100.00;101387.56;6115744;23;20444;-78
2023/01/06 00:42:10;;;;;;;4.00;3.80;;;;;;;9.75;100.00;101488.28;6121016;23;20010;-76
2023/01/06 00:44:38;;;;;;;4.10;3.90;;;;;;;9.76;100.00;101487.38;6120521;23;20340;-77
2023/01/06 00:47:09;;;;;;;3.90;3.70;;;;;;;9.72;100.00;101479.66;6068519;23;20072;-76
2023/01/06 00:49:36;;;;;;;4.05;3.85;;;;;;;9.73;100.00;101476.16;6091048;23;20030;-79
2023/01/06 00:52:03;;;;;;;4.10;3.90;;;;;;;9.71;100.00;101473.59;6095117;23;20522;-76
2023/01/06 00:54:29;;;;;;;4.25;4.05;;;;;;;9.61;100.00;101456.47;6101662;23;20096;-78
2023/01/06 00:56:56;;;;;;;4.20;4.00;;;;;;;9.21;100.00;101388.94;6119063;23;20277;-78
2023/01/06 00:59:24;;;;;;;4.50;4.10;;;;;;;9.67;100.00;101466.75;6120074;23;20082;-77
2023/01/06 01:01:53;;;;;;;4.00;3.80;;;;;;;9.69;100.00;101469.31;6115672;23;20041;-76
2023/01/06 01:04:21;;;;;;;4.05;3.85;;;;;;;9.47;100.00;101422.06;6102283;23;20492;-78
2023/01/06 01:06:48;;;;;;;4.13;3.92;;;;;;;9.42;100.00;101418.75;6097310;23;20022;-78
2023/01/06 01:09:17;;;;;;;3.95;3.75;;;;;;;9.73;100.00;101474.38;6128099;23;20029;-77
2023/01/06 01:14:29;;;;;;;3.85;3.67;;;;;;;9.50;100.00;101422.81;6116882;23;20524;-77
2023/01/06 01:16:56;;;;;;;4.32;4.13;;;;;;;9.38;100.00;101397.03;6122669;23;20536;-79
2023/01/06 01:19:23;;;;;;;3.97;3.78;;;;;;;8.75;100.00;101298.00;6110006;23;20030;-77
2023/01/06 01:21:49;;;;;;;4.22;4.00;;;;;;;9.75;100.00;101456.00;6127096;23;20615;-77
2023/01/06 01:24:16;;;;;;;4.22;4.03;;;;;;;9.75;100.00;101466.47;6120719;23;20026;-77
2023/01/06 01:26:43;;;;;;;4.45;4.00;;;;;;;9.77;100.00;101460.25;6121348;23;20021;-78
2023/01/06 01:29:11;;;;;;;3.97;3.78;;;;;;;9.34;100.00;101388.44;6123099;23;20033;-79
2023/01/06 01:31:37;;;;;;;4.20;4.00;;;;;;;9.81;100.00;101466.25;6090510;23;20030;-76
2023/01/06 01:34:04;;;;;;;4.10;3.90;;;;;;;9.16;100.00;101365.50;6125934;23;20037;-77
2023/01/06 01:36:31;;;;;;;3.80;3.60;;;;;;;9.36;100.00;101401.47;6090701;23;20039;-75
2023/01/06 01:38:58;;;;;;;3.97;3.78;;;;;;;9.79;100.00;101470.69;6115527;23;20033;-78
2023/01/06 01:41:26;;;;;;;3.92;3.72;;;;;;;9.63;100.00;101438.09;6126047;23;20017;-76
2023/01/06 01:43:57;;;;;;;3.95;3.72;;;;;;;9.76;100.00;101455.06;6102349;23;20037;-74
2023/01/06 01:46:26;;;;;;;4.00;3.78;;;;;;;9.73;100.00;101460.44;6127132;23;20016;-76
2023/01/06 01:48:57;;;;;;;7.45;4.00;;;;;;;8.21;100.00;101214.41;6125010;23;20610;-79
2023/01/06 01:51:29;;;;;;;4.22;4.00;;;;;;;9.41;100.00;101402.19;6104358;23;20016;-78
2023/01/06 01:54:00;;;;;;;3.72;3.58;;;;;;;9.75;100.00;101456.00;6100453;23;20026;-77
2023/01/06 01:56:31;;;;;;;4.20;4.00;;;;;;;9.74;100.00;101446.41;6098931;23;21301;-77
2023/01/06 01:59:07;;;;;;;4.15;3.95;;;;;;;9.53;100.00;101417.44;6090751;23;20018;-79
2023/01/06 02:01:34;;;;;;;4.32;4.13;;;;;;;9.28;100.00;101375.56;6114005;23;20025;-77
2023/01/06 02:04:01;;;;;;;4.10;3.90;;;;;;;9.40;100.00;101389.97;6131552;23;20079;-75
2023/01/06 02:06:29;;;;;;;4.10;3.90;;;;;;;9.54;100.00;101415.66;6087193;23;20021;-76
2023/01/06 02:09:21;;;;;;;4.38;4.18;;;;;;;9.26;100.00;101382.63;6099020;23;20028;-80
2023/01/06 02:11:50;;;;;;;4.07;3.85;;;;;;;9.73;100.00;101442.94;6068402;23;20022;-77
2023/01/06 02:14:22;;;;;;;3.70;3.60;;;;;;;9.73;100.00;101439.47;6101048;23;20026;-78
2023/01/06 02:16:57;;;;;;;9.80;4.07;;;;;;;9.72;100.00;101448.22;6119727;23;20023;-78
2023/01/06 02:20:06;;;;;;;4.15;3.92;;;;;;;9.76;100.00;101441.94;6085675;23;20029;-77
2023/01/06 02:22:44;;;;;;;4.10;3.80;;;;;;;9.14;100.00;101336.78;6075666;23;20017;-76
2023/01/06 02:25:28;;;;;;;4.00;3.80;;;;;;;9.76;100.00;101442.84;6091452;23;20022;-77
2023/01/06 02:28:19;;;;;;;4.47;4.20;;;;;;;9.76;100.00;101432.34;6092601;23;20231;-79
2023/01/06 02:31:27;;;;;;;4.95;4.22;;;;;;;9.76;100.00;101434.97;6110784;23;20091;-77
2023/01/06 02:34:08;;;;;;;5.20;3.80;;;;;;;9.77;100.00;101433.19;6050800;23;20033;-76
2023/01/06 02:37:09;;;;;;;3.90;3.70;;;;;;;9.30;100.00;101357.16;6098127;23;20013;-77
2023/01/06 02:39:38;;;;;;;4.40;4.10;;;;;;;9.76;100.00;101424.47;6083832;23;20092;-76
2023/01/06 02:42:36;;;;;;;3.70;3.60;;;;;;;9.42;100.00;101361.09;6119190;23;20092;-76
2023/01/06 02:45:41;;;;;;;3.60;3.50;;;;;;;9.53;100.00;101351.94;6108032;23;20652;-77
2023/01/06 02:48:25;;;;;;;4.10;3.90;;;;;;;9.66;100.00;101373.31;6111698;23;20284;-78
2023/01/06 02:51:00;;;;;;;4.10;3.90;;;;;;;9.91;100.00;101396.81;6115330;23;20086;-77
2023/01/06 02:53:41;;;;;;;4.72;3.90;;;;;;;9.68;100.00;101361.00;6114803;23;20017;-77
2023/01/06 02:56:08;;;;;;;3.90;3.70;;;;;;;9.31;100.00;101301.25;6111698;23;20025;-77
2023/01/06 02:59:18;;;;;;;4.45;4.07;;;;;;;9.89;100.00;101382.91;6094463;23;20494;-78
2023/01/06 03:01:48;;;;;;;4.25;4.05;;;;;;;9.66;100.00;101336.63;5997305;23;20000;-78
2023/01/06 03:04:20;;;;;;;4.70;4.40;;;;;;;9.93;100.00;101381.03;6073353;23;20031;-77
2023/01/06 03:06:50;;;;;;;4.18;3.97;;;;;;;9.90;100.00;101371.53;6083266;23;20014;-76
2023/01/06 03:09:21;;;;;;;4.15;3.90;;;;;;;9.46;100.00;101299.81;6086230;23;20092;-77
2023/01/06 03:11:50;;;;;;;4.22;4.03;;;;;;;9.47;100.00;101291.91;6094665;23;20075;-79
2023/01/06 03:14:34;;;;;;;4.30;4.10;;;;;;;9.72;100.00;101331.16;6112798;23;20013;-76
2023/01/06 03:17:01;;;;;;;4.88;4.47;;;;;;;9.87;100.00;101361.16;6091278;23;20110;-77
2023/01/06 03:19:27;;;;;;;4.10;3.90;;;;;;;9.72;100.00;101339.00;6111056;23;20083;-78
2023/01/06 03:21:55;;;;;;;4.18;3.97;;;;;;;8.68;100.00;101165.69;6112668;23;20074;-78
2023/01/06 03:24:22;;;;;;;4.30;4.07;;;;;;;9.72;100.00;101348.63;6087701;23;20073;-77
2023/01/06 03:26:51;;;;;;;4.30;4.10;;;;;;;9.84;100.00;101384.84;6098177;23;20219;-76
2023/01/06 03:29:18;;;;;;;4.05;3.83;;;;;;;9.31;100.00;101283.78;6114661;23;20047;-78
2023/01/06 03:32:02;;;;;;;6.75;3.97;;;;;;;9.37;100.00;101304.50;6117444;23;20089;-76
2023/01/06 03:34:41;;;;;;;4.00;3.80;;;;;;;9.85;100.00;101357.72;6116863;23;20265;-78
2023/01/06 03:37:26;;;;;;;5.43;3.70;;;;;;;9.89;100.00;101366.34;6080992;23;20018;-79
2023/01/06 03:40:03;;;;;;;5.65;3.80;;;;;;;9.90;100.00;101373.28;6089084;23;20016;-75
2023/01/06 03:45:35;;;;;;;3.90;3.70;;;;;;;9.70;100.00;101342.59;6115329;23;20460;-78
2023/01/06 03:48:55;;;;;;;10.35;4.50;;;;;;;9.69;100.00;101318.16;6115790;23;20100;-78
2023/01/06 03:51:45;;;;;;;4.75;4.30;;;;;;;9.93;100.00;101355.66;6012259;23;20267;-78
2023/01/06 03:54:27;;;;;;;5.32;5.13;;;;;;;9.16;100.00;101214.50;6107748;23;20021;-77
2023/01/06 03:57:01;;;;;;;4.63;4.22;;;;;;;9.73;100.00;101313.66;6062598;23;20133;-77
2023/01/06 03:59:31;;;;;;;4.28;4.07;;;;;;;9.87;100.00;101329.69;6083458;23;20099;-76
2023/01/06 04:01:58;;;;;;;4.43;4.22;;;;;;;9.39;100.00;101252.91;6114981;23;20044;-77
2023/01/06 04:04:25;;;;;;;4.00;3.80;;;;;;;9.67;100.00;101288.53;6111800;23;20041;-78
2023/01/06 04:06:51;;;;;;;4.20;4.00;;;;;;;9.59;100.00;101286.19;6111282;23;20383;-77
2023/01/06 04:09:18;;;;;;;3.85;3.67;;;;;;;9.56;100.00;101254.88;6105841;23;20025;-78
2023/01/06 04:14:29;;;;;;;4.00;3.80;;;;;;;9.28;100.00;101220.16;6115601;23;20014;-78
2023/01/06 04:16:55;;;;;;;4.30;4.10;;;;;;;9.70;100.00;101298.03;6111973;23;20020;-78
2023/01/06 04:19:22;;;;;;;4.30;4.10;;;;;;;9.37;100.00;101254.72;6119833;23;20032;-76
2023/01/06 04:21:48;;;;;;;4.22;4.03;;;;;;;9.35;100.00;101238.22;6089300;23;20010;-77
2023/01/06 04:24:14;;;;;;;4.53;4.28;;;;;;;9.86;100.00;101314.00;6111074;23;20443;-78
2023/01/06 04:26:41;;;;;;;4.07;3.88;;;;;;;9.29;100.00;101237.59;6087904;23;20408;-77
2023/01/06 04:29:07;;;;;;;4.18;3.97;;;;;;;9.68;100.00;101302.47;6123171;23;20029;-77
2023/01/06 04:31:34;;;;;;;4.03;3.83;;;;;;;9.32;100.00;101225.25;6119517;23;20016;-78
2023/01/06 04:34:01;;;;;;;4.10;3.90;;;;;;;9.76;100.00;101292.53;6118480;23;20134;-78
2023/01/06 04:36:27;;;;;;;3.88;3.75;;;;;;;9.82;100.00;101297.53;6114131;23;20021;-78
2023/01/06 04:38:53;;;;;;;4.40;4.15;;;;;;;9.49;100.00;101242.94;6089234;23;20021;-78
2023/01/06 04:41:20;;;;;;;4.20;4.00;;;;;;;9.82;100.00;101294.06;6097292;23;20037;-76
2023/01/06 04:43:47;;;;;;;4.10;3.80;;;;;;;9.66;100.00;101288.56;6119251;23;20045;-78
2023/01/06 04:46:14;;;;;;;4.30;4.10;;;;;;;9.66;100.00;101268.50;6118151;23;20058;-76
2023/01/06 04:48:40;;;;;;;4.60;4.30;;;;;;;9.50;100.00;101244.66;6116170;23;20029;-76
2023/01/06 04:51:08;;;;;;;4.32;4.03;;;;;;;9.83;100.00;101287.94;6067409;23;20051;-77
2023/01/06 04:53:38;;;;;;;4.30;4.10;;;;;;;9.83;100.00;101294.03;6089881;23;20014;-78
2023/01/06 04:56:09;;;;;;;4.20;4.00;;;;;;;9.87;100.00;101300.00;6116550;23;20019;-78
2023/01/06 04:58:36;;;;;;;4.10;3.90;;;;;;;9.69;100.00;101264.88;6116014;23;20093;-78
2023/01/06 05:01:08;;;;;;;3.80;3.70;;;;;;;9.82;100.00;101280.97;6090013;23;20496;-76
2023/01/06 05:03:35;;;;;;;4.03;3.83;;;;;;;9.82;100.00;101312.44;6114592;23;20362;-76
2023/01/06 05:06:05;;;;;;;5.35;4.50;;;;;;;9.83;100.00;101283.53;6090466;23;20053;-76
2023/01/06 05:08:31;;;;;;;4.55;4.25;;;;;;;9.57;100.00;101243.47;6120496;23;20014;-77
2023/01/06 05:11:00;;;;;;;4.20;4.00;;;;;;;9.64;100.00;101257.22;6103615;23;20041;-77
2023/01/06 05:13:27;;;;;;;9.98;4.10;;;;;;;9.40;100.00;101198.72;6120827;23;20041;-78
2023/01/06 05:15:54;;;;;;;4.10;3.90;;;;;;;9.72;100.00;101257.75;6118214;23;20019;-77
2023/01/06 05:18:20;;;;;;;4.70;4.40;;;;;;;9.58;100.00;101226.84;6109203;23;20535;-76
2023/01/06 05:20:54;;;;;;;3.90;3.75;;;;;;;9.42;100.00;101206.53;6118257;23;20014;-77
2023/01/06 05:23:20;;;;;;;6.95;4.03;;;;;;;9.53;100.00;101238.44;6115912;23;20045;-76
2023/01/06 05:25:51;;;;;;;4.20;3.97;;;;;;;9.78;100.00;101259.25;6110964;23;20022;-78
2023/01/06 05:28:18;;;;;;;4.85;4.38;;;;;;;9.73;100.00;101282.19;6063654;23;20057;-78
2023/01/06 05:30:44;;;;;;;4.07;3.88;;;;;;;9.07;100.00;101159.00;6103699;23;20009;-77
2023/01/06 05:33:11;;;;;;;3.90;3.70;;;;;;;7.97;100.00;100979.13;6116653;23;20049;-77
2023/01/06 05:35:37;;;;;;;3.80;3.65;;;;;;;9.71;100.00;101263.91;6117130;23;20025;-79
2023/01/06 05:38:04;;;;;;;4.28;4.05;;;;;;;9.68;100.00;101265.78;6104362;23;20084;-78
2023/01/06 05:40:31;;;;;;;3.80;3.70;;;;;;;9.54;100.00;101258.47;6118517;23;20010;-78
2023/01/06 05:42:57;;;;;;;3.97;3.78;;;;;;;9.47;100.00;101215.09;6114575;23;20033;-77
2023/01/06 05:45:24;;;;;;;3.58;3.47;;;;;;;9.64;100.00;101238.00;6092850;23;20025;-79
2023/01/06 05:47:51;;;;;;;4.00;3.80;;;;;;;9.32;100.00;101209.53;6093902;23;20467;-76
2023/01/06 05:50:18;;;;;;;3.83;3.70;;;;;;;9.14;100.00;101187.53;6090839;23;20092;-77
2023/01/06 05:52:44;;;;;;;4.03;3.83;;;;;;;9.11;100.00;101178.94;6106285;23;20027;-79
2023/01/06 05:55:11;;;;;;;4.07;3.88;;;;;;;9.62;100.00;101250.31;6087482;23;20024;-76
2023/01/06 05:57:37;;;;;;;3.90;3.70;;;;;;;9.82;100.00;101302.78;6091848;23;20026;-77
2023/01/06 06:00:05;;;;;;;4.10;3.90;;;;;;;9.49;100.00;101234.22;6107289;23;20029;-78
2023/01/06 06:02:31;;;;;;;4.20;4.00;;;;;;;9.23;100.00;101202.03;6117189;23;20026;-77
2023/01/06 06:04:58;;;;;;;4.00;3.80;;;;;;;9.81;100.00;101272.25;6118367;23;20013;-77
2023/01/06 06:07:24;;;;;;;4.00;3.80;;;;;;;8.96;100.00;101131.50;6114817;23;20100;-77
2023/01/06 06:09:50;;;;;;;3.97;3.80;;;;;;;9.73;100.00;101248.13;6094994;23;20381;-77
2023/01/06 06:12:17;;;;;;;4.00;3.80;;;;;;;9.74;100.00;101252.44;6109723;23;20383;-78
2023/01/06 06:14:43;;;;;;;3.92;3.72;;;;;;;9.80;100.00;101257.44;6111181;23;20021;-79
2023/01/06 06:17:10;;;;;;;3.78;3.65;;;;;;;9.87;100.00;101273.78;6119404;23;20026;-78
2023/01/06 06:19:36;;;;;;;4.20;3.90;;;;;;;9.85;100.00;101267.75;6115917;23;20018;-78
2023/01/06 06:22:02;;;;;;;4.07;3.80;;;;;;;9.82;100.00;101258.22;6092282;23;20022;-76
2023/01/06 06:24:29;;;;;;;4.18;3.97;;;;;;;9.48;100.00;101215.03;6110621;23;20030;-77
2023/01/06 06:26:55;;;;;;;4.30;3.90;;;;;;;9.37;100.00;101188.41;6129519;23;20010;-79
2023/01/06 06:29:22;;;;;;;4.00;3.80;;;;;;;9.83;100.00;101280.91;6118701;23;20057;-78
2023/01/06 06:31:48;;;;;;;4.00;3.80;;;;;;;9.81;100.00;101250.44;6116083;23;20012;-77
2023/01/06 06:34:15;;;;;;;4.93;4.00;;;;;;;9.27;100.00;101147.75;6091114;23;20583;-78
2023/01/06 06:36:41;;;;;;;4.00;3.80;;;;;;;9.84;100.00;101240.66;6117658;23;20112;-77
2023/01/06 06:39:07;;;;;;;3.97;3.78;;;;;;;9.61;100.00;101219.78;6116785;23;20371;-76
2023/01/06 06:41:34;;;;;;;3.95;3.75;;;;;;;9.04;100.00;101107.63;6113030;23;20420;-75
2023/01/06 06:44:00;;;;;;;4.03;3.83;;;;;;;9.82;100.00;101234.63;6116446;23;20029;-77
2023/01/06 06:46:27;;;;;;;3.80;3.70;;;;;;;9.62;100.00;101211.00;6074700;23;20526;-77
2023/01/06 06:48:53;;;;;;;3.85;3.67;;;;;;;9.53;100.00;101170.31;6101051;23;20113;-76
2023/01/06 06:51:21;;;;;;;3.97;3.78;;;;;;;9.83;100.00;101238.97;6089029;23;20190;-77
2023/01/06 06:53:48;;;;;;;4.35;3.97;;;;;;;9.84;100.00;101230.19;6121347;23;20013;-77
2023/01/06 06:56:16;;;;;;;4.18;3.97;;;;;;;9.61;100.00;101212.78;6093703;23;20041;-77
2023/01/06 06:58:43;;;;;;;3.88;3.67;;;;;;;9.39;100.00;101161.22;6108493;23;20075;-77
2023/01/06 07:01:12;;;;;;;4.10;3.83;;;;;;;8.44;100.00;100999.19;6087208;23;20122;-75
2023/01/06 07:03:39;;;;;;;4.10;3.90;;;;;;;9.50;100.00;101175.66;6115225;23;20035;-75
2023/01/06 07:06:07;;;;;;;4.03;3.83;;;;;;;9.84;100.00;101226.72;6077549;23;20516;-78
2023/01/06 07:08:34;;;;;;;5.30;3.92;;;;;;;9.75;100.00;101217.47;6110028;23;20032;-77
2023/01/06 07:11:01;;;;;;;4.25;4.05;;;;;;;9.95;100.00;101248.09;6114637;23;20032;-78
2023/01/06 07:13:27;;;;;;;4.30;4.10;;;;;;;9.94;100.00;101242.03;6115817;23;20037;-76
2023/01/06 07:15:54;;;;;;;4.05;3.85;;;;;;;9.90;100.00;101231.69;6117784;23;20032;-76
2023/01/06 07:18:20;;;;;;;4.03;3.83;;;;;;;9.49;100.00;101185.28;6061106;23;20107;-76
2023/01/06 07:20:49;;;;;;;8.82;4.30;;;;;;;9.81;100.00;101217.22;6097227;23;20605;-75
2023/01/06 07:23:16;;;;;;;3.70;3.60;;;;;;;9.34;100.00;101144.84;6115391;23;20025;-75
2023/01/06 07:25:42;;;;;;;4.05;3.85;;;;;;;9.85;100.00;101233.66;6102869;23;20068;-77
2023/01/06 07:28:08;;;;;;;4.03;3.83;;;;;;;9.71;100.00;101210.63;6087542;23;20030;-76
2023/01/06 07:30:36;;;;;;;4.30;4.10;;;;;;;9.92;100.00;101245.59;6115203;23;20044;-75
2023/01/06 07:33:03;;;;;;;4.43;4.13;;;;;;;9.90;100.00;101227.34;6113521;23;20076;-76
2023/01/06 07:35:29;;;;;;;3.65;3.55;;;;;;;9.94;100.00;101231.53;6112834;23;20018;-76
2023/01/06 07:38:02;;;;;;;4.18;3.97;;;;;;;9.81;100.00;101217.22;6114336;23;20036;-76
2023/01/06 07:40:29;;;;;;;4.10;3.90;;;;;;;9.23;100.00;101117.38;6108491;23;20487;-77
2023/01/06 07:42:55;;;;;;;4.70;4.30;;;;;;;9.77;100.00;101213.84;6107536;23;20081;-76
2023/01/06 07:45:22;;;;;;;3.80;3.70;;;;;;;9.93;100.00;101235.06;6084315;23;20030;-77
2023/01/06 07:47:50;;;;;;;4.60;4.30;;;;;;;9.81;100.00;101221.59;6095730;23;20045;-76
2023/01/06 07:50:17;;;;;;;3.97;3.78;;;;;;;8.52;100.00;101004.97;6118371;23;20092;-76
2023/01/06 07:52:43;;;;;;;4.00;3.80;;;;;;;9.25;100.00;101128.66;6117002;23;20009;-77
2023/01/06 07:55:10;;;;;;;4.10;3.90;;;;;;;9.85;100.00;101218.78;6095910;23;20018;-72
2023/01/06 07:57:36;;;;;;;4.28;4.07;;;;;;;10.03;100.00;101240.78;6127182;23;20017;-73
2023/01/06 08:00:03;;;;;;;4.00;3.80;;;;;;;9.66;100.00;101181.13;6068623;23;20464;-74
2023/01/06 08:02:30;;;;;;;4.30;4.10;;;;;;;8.86;100.00;101051.63;6092179;23;20017;-73
2023/01/06 08:04:56;;;;;;;5.22;4.88;;;;;;;9.71;100.00;101198.38;6104152;23;20017;-72
2023/01/06 08:07:25;;;;;;;4.25;4.05;;;;;;;10.05;100.00;101262.56;6120465;23;20026;-75
2023/01/06 08:09:52;;;;;;;4.38;4.18;;;;;;;9.74;100.00;101202.63;6119858;23;20149;-74
2023/01/06 08:12:18;;;;;;;4.10;3.90;;;;;;;10.11;100.00;101256.19;6122755;23;20045;-75
2023/01/06 08:14:44;;;;;;;4.10;3.90;;;;;;;10.10;100.00;101270.22;6118631;23;20074;-74
2023/01/06 08:17:11;;;;;;;4.00;3.80;;;;;;;10.12;100.00;101263.13;6112731;23;20506;-75
2023/01/06 08:19:37;;;;;;;4.00;3.80;;;;;;;10.11;100.00;101262.28;6108870;23;20021;-75
2023/01/06 08:22:04;;;;;;;4.45;4.25;;;;;;;9.41;100.00;101144.59;6092343;23;20030;-74
2023/01/06 08:24:30;;;;;;;4.40;4.15;;;;;;;10.19;100.00;101257.59;6104487;23;20084;-75
2023/01/06 08:26:58;;;;;;;3.80;3.70;;;;;;;9.76;100.00;101198.19;6093976;23;20220;-73
2023/01/06 08:29:24;;;;;;;7.38;3.97;;;;;;;10.11;100.00;101249.19;6114587;23;20026;-74
2023/01/06 08:31:51;;;;;;;3.78;3.67;;;;;;;10.29;100.00;101263.31;6118765;23;20392;-75
2023/01/06 08:34:30;;;;;;;3.80;3.60;;;;;;;10.23;100.00;101265.34;6101391;23;20103;-75
2023/01/06 08:36:57;;;;;;;4.03;3.83;;;;;;;10.21;100.00;101265.41;6120294;23;20029;-75
2023/01/06 08:39:23;;;;;;;4.40;4.20;;;;;;;10.34;100.00;101271.88;6118318;23;20028;-75
2023/01/06 08:41:50;;;;;;;4.15;3.95;;;;;;;9.96;100.00;101216.59;6091860;23;20018;-73
2023/01/06 08:44:17;;;;;;;4.10;3.90;;;;;;;10.12;100.00;101247.41;6085829;23;20071;-74
2023/01/06 08:46:44;;;;;;;4.10;3.90;;;;;;;10.00;100.00;101227.78;6125865;23;20093;-74
2023/01/06 08:49:10;;;;;;;4.40;4.20;;;;;;;10.27;100.00;101272.16;6115163;23;20495;-75
2023/01/06 08:51:37;;;;;;;3.95;3.75;;;;;;;10.27;100.00;101248.56;6131860;23;20102;-72
2023/01/06 08:54:04;;;;;;;4.00;3.80;;;;;;;10.55;100.00;101298.13;6118693;23;20025;-76
2023/01/06 08:56:30;;;;;;;4.22;4.03;;;;;;;9.98;100.00;101198.16;6117830;23;20021;-75
2023/01/06 08:59:00;;;;;;;3.80;3.60;;;;;;;9.95;100.00;101201.75;6099410;23;20025;-75
2023/01/06 09:01:30;;;;;;;4.20;4.00;;;;;;;10.60;100.00;101306.63;6104568;23;20029;-72
2023/01/06 09:03:58;;;;;;;4.00;3.80;;;;;;;10.62;100.00;101315.31;6118022;23;20033;-74
2023/01/06 09:06:26;;;;;;;3.90;3.70;;;;;;;10.66;100.00;101321.28;6084266;23;20018;-74
2023/01/06 09:08:54;;;;;;;4.20;4.00;;;;;;;10.60;100.00;101311.88;6117578;23;20523;-73
2023/01/06 09:11:22;;;;;;;4.07;3.88;;;;;;;10.66;100.00;101318.66;6096140;23;20700;-74
2023/01/06 09:13:51;;;;;;;4.40;4.20;;;;;;;10.38;100.00;101276.09;6091914;23;20021;-74
2023/01/06 09:16:19;;;;;;;4.00;3.80;;;;;;;10.27;100.00;101257.28;6089068;23;20077;-74
2023/01/06 09:18:49;;;;;;;4.00;3.80;;;;;;;10.56;100.00;101299.81;6104338;23;20021;-73
2023/01/06 09:21:18;;;;;;;4.60;4.30;;;;;;;10.66;100.00;101323.91;6079321;23;20029;-75
2023/01/06 09:23:44;;;;;;;4.03;3.83;;;;;;;10.42;100.00;101304.78;6084218;23;20069;-73
2023/01/06 09:26:15;;;;;;;4.38;4.18;;;;;;;10.43;100.00;101317.84;6117561;23;20036;-75
2023/01/06 09:28:41;;;;;;;3.72;3.63;;;;;;;10.62;100.00;101344.16;6118560;23;20040;-73
2023/01/06 09:31:08;;;;;;;3.90;3.70;;;;;;;10.55;100.00;101356.72;6128474;23;20580;-76
2023/01/06 09:33:35;;;;;;;4.03;3.83;;;;;;;10.60;100.00;101366.16;6119188;23;20033;-73
2023/01/06 09:36:02;;;;;;;4.22;4.03;;;;;;;10.23;100.00;101297.66;6095481;23;20040;-75
2023/01/06 09:38:29;;;;;;;4.40;4.10;;;;;;;10.69;100.00;101385.00;6111653;23;20068;-73
2023/01/06 09:41:19;;;;;;;4.32;4.13;;;;;;;9.67;100.00;101220.38;6115604;23;20035;-75
2023/01/06 09:44:07;;;;;;;5.28;5.00;;;;;;;10.73;100.00;101385.75;6108914;23;20078;-72
2023/01/06 09:46:37;;;;;;;4.20;4.00;;;;;;;9.99;100.00;101287.25;6086551;23;20018;-72
2023/01/06 09:49:27;;;;;;;4.82;4.53;;;;;;;10.64;100.00;101396.63;6115170;23;20042;-73
2023/01/06 09:52:02;;;;;;;4.20;4.00;;;;;;;10.34;100.00;101387.31;6114805;23;20017;-75
2023/01/06 09:54:41;;;;;;;4.07;3.88;;;;;;;10.45;100.00;101396.53;6108767;23;20276;-72
2023/01/06 09:57:25;;;;;;;4.05;3.85;;;;;;;10.36;100.00;101390.75;6117137;23;20341;-73
2023/01/06 10:00:02;;;;;;;3.95;3.75;;;;;;;10.27;100.00;101393.69;6115332;23;20029;-75
2023/01/06 10:02:35;;;;;;;4.20;3.90;;;;;;;10.30;100.00;101395.34;6113193;23;20029;-73
2023/01/06 10:05:31;;;;;;;4.13;3.92;;;;;;;10.19;100.00;101369.53;6106279;23;20028;-74
2023/01/06 10:08:02;;;;;;;4.65;4.43;;;;;;;10.45;100.00;101404.41;6105173;23;20189;-73
2023/01/06 10:10:41;;;;;;;4.30;4.10;;;;;;;10.44;100.00;101403.53;6117217;23;20025;-73
2023/01/06 10:13:31;;;;;;;4.60;4.40;;;;;;;10.34;100.00;101368.94;6100690;23;20025;-75
2023/01/06 10:16:15;;;;;;;4.10;3.90;;;;;;;10.66;100.00;101403.50;6113031;23;20151;-75
2023/01/06 10:19:19;;;;;;;4.40;4.20;;;;;;;10.72;100.00;101423.41;6112425;23;20152;-75
2023/01/06 10:22:07;;;;;;;4.38;4.18;;;;;;;10.46;100.00;101379.84;6089363;23;20013;-75
2023/01/06 10:24:53;;;;;;;4.05;3.85;;;;;;;10.72;100.00;101437.41;6114444;23;20042;-73
2023/01/06 10:27:31;;;;;;;4.25;4.00;;;;;;;10.69;100.00;101436.66;6111712;23;20034;-75
2023/01/06 10:30:00;;;;;;;4.85;3.75;;;;;;;10.64;100.00;101444.72;6114958;23;20014;-73
2023/01/06 10:32:31;;;;;;;4.10;3.90;;;;;;;10.42;100.00;101392.22;6116922;23;20100;-75
2023/01/06 10:34:59;;;;;;;4.28;4.07;;;;;;;10.36;100.00;101384.59;6112373;23;20008;-75
2023/01/06 10:37:35;;;;;;;5.03;4.50;;;;;;;10.14;100.00;101343.50;6087879;23;20233;-74
2023/01/06 10:40:10;;;;;;;4.65;4.35;;;;;;;10.44;100.00;101403.53;6084563;23;20391;-73
2023/01/06 10:42:54;;;;;;;4.22;4.03;;;;;;;10.22;100.00;101389.53;6113743;23;20401;-75
2023/01/06 10:45:23;;;;;;;4.20;4.00;;;;;;;10.14;100.00;101382.84;6121280;23;20436;-73
2023/01/06 10:47:51;;;;;;;4.57;4.20;;;;;;;10.51;100.00;101436.47;6079910;23;20045;-73
2023/01/06 10:50:18;;;;;;;4.22;4.03;;;;;;;10.53;100.00;101441.69;6107162;23;21240;-74
2023/01/06 10:52:46;;;;;;;4.10;3.90;;;;;;;10.08;100.00;101361.22;6121319;23;20169;-73
2023/01/06 10:55:25;;;;;;;4.07;3.88;;;;;;;10.62;100.00;101441.28;6086551;23;20050;-74
2023/01/06 10:57:55;;;;;;;4.20;4.00;;;;;;;10.72;100.00;101431.28;6081618;23;20084;-73
2023/01/06 11:00:23;;;;;;;4.05;3.85;;;;;;;10.88;100.00;101431.50;6119023;23;20027;-72
2023/01/06 11:02:53;;;;;;;5.10;4.60;;;;;;;10.61;100.00;101381.84;6108021;23;20244;-73
2023/01/06 11:05:32;;;;;;;4.85;4.53;;;;;;;11.08;100.00;101442.00;6115849;23;20110;-75
2023/01/06 11:08:11;;;;;;;4.07;3.88;;;;;;;10.95;100.00;101391.78;6094501;23;20042;-73
2023/01/06 11:10:43;;;;;;;4.32;4.13;;;;;;;11.46;100.00;101446.53;6118999;23;20027;-75
2023/01/06 11:13:34;;;;;;;4.30;4.10;;;;;;;11.50;100.00;101454.22;6066926;23;20010;-76
2023/01/06 11:16:06;;;;;;;4.22;4.03;;;;;;;11.45;100.00;101455.38;6085321;23;20033;-75
2023/01/06 11:18:36;;;;;;;4.25;4.05;;;;;;;11.26;100.00;101426.38;6114734;23;20032;-75
2023/01/06 11:21:16;;;;;;;4.40;4.20;;;;;;;11.48;100.00;101448.19;6109953;23;20050;-75
2023/01/06 11:23:46;;;;;;;4.35;4.15;;;;;;;11.40;100.00;101449.44;6085207;23;20096;-75
2023/01/06 11:26:21;;;;;;;4.55;4.35;;;;;;;11.44;100.00;101448.38;6118445;23;20028;-75
2023/01/06 11:28:51;;;;;;;4.57;4.38;;;;;;;11.53;100.00;101459.34;6113632;23;20033;-73
2023/01/06 11:31:21;;;;;;;4.30;4.10;;;;;;;11.34;100.00;101421.66;6117710;23;21012;-73
2023/01/06 11:34:00;;;;;;;4.60;4.40;;;;;;;11.18;100.00;101429.34;6118376;23;20025;-74
2023/01/06 11:36:32;;;;;;;4.10;3.90;;;;;;;11.13;100.00;101397.19;6112465;23;20047;-74
2023/01/06 11:39:11;;;;;;;4.10;3.85;;;;;;;11.44;100.00;101441.34;6107423;23;20085;-75
2023/01/06 11:41:39;;;;;;;4.20;4.00;;;;;;;11.22;100.00;101428.28;6082432;23;20170;-74
2023/01/06 11:44:30;;;;;;;4.43;4.22;;;;;;;11.35;100.00;101440.00;6119052;23;20035;-74
2023/01/06 11:47:02;;;;;;;4.47;4.28;;;;;;;11.33;100.00;101433.94;6105613;23;20037;-73